Flight Track Log - Related Links

Times and Time Zones

All times are in EDT time to prevent confusion due to time zone crossing. See the DAL2226 flight status page for this flight to view local times or setup timezone preferences in your user account.

Time Position Orientation Groundspeed Altitude Reporting Facility
EDT Latitude Longitude Course Direction KTS MPH feet Rate Location/Type
Sat 07:44:28 AM 33.6333 -84.3667 116° Southeast 203 234 3,100  Level Atlanta TRACON
Sat 07:45:28 AM 33.6000 -84.2833 179° South 276 318 5,700 2,394 Climbing Atlanta TRACON
Sat 07:47:51 AM 33.4119 -84.2803 171° South 290 334 11,200 1,951 Climbing Atlanta Center
Sat 07:48:51 AM 33.3306 -84.2650 166° South 303 349 12,300 1,900 Climbing Atlanta Center
Sat 07:49:51 AM 33.2264 -84.2350 168° South 360 414 15,000 2,700 Climbing Atlanta Center
Sat 07:50:51 AM 33.1219 -84.2075 168° South 386 444 17,700 2,550 Climbing Atlanta Center
Sat 07:51:51 AM 33.0136 -84.1800 163° South 395 455 20,100 2,200 Climbing Atlanta Center
Sat 07:52:51 AM 32.9031 -84.1403 158° South 400 460 22,100 1,950 Climbing Atlanta Center
Sat 07:53:51 AM 32.7944 -84.0883 161° South 417 480 24,000 1,749 Climbing Atlanta Center
Sat 07:55:46 AM 32.5583 -83.9894 162° South 448 516 27,200 1,568 Climbing Jacksonville Center
Sat 07:56:47 AM 32.4356 -83.9411 162° South 448 516 28,600 1,500 Climbing Jacksonville Center
Sat 07:57:46 AM 32.3128 -83.8931 161° South 458 527 30,200 1,462 Climbing Jacksonville Center
Sat 07:58:46 AM 32.1922 -83.8428 161° South 463 533 31,500 1,350 Climbing Jacksonville Center
Sat 07:59:46 AM 32.0653 -83.7922 161° South 463 533 32,900 1,450 Climbing Jacksonville Center
Sat 08:00:46 AM 31.9425 -83.7422 162° South 463 533 34,400 1,450 Climbing Jacksonville Center
Sat 08:01:46 AM 31.8342 -83.7019 160° South 458 527 35,800 1,150 Climbing Jacksonville Center
Sat 08:02:46 AM 31.7133 -83.6497 161° South 458 527 36,700 950 Climbing Jacksonville Center
Sat 08:03:46 AM 31.5861 -83.5975 162° South 468 539 37,700 1,150 Climbing Jacksonville Center
Sat 08:04:46 AM 31.4694 -83.5528 161° South 466 536 39,000 650 Climbing Jacksonville Center
Sat 08:05:46 AM 31.3528 -83.5056 161° South 450 518 39,000  Level Jacksonville Center
Sat 08:06:46 AM 31.2403 -83.4611 161° South 438 504 39,000  Level Jacksonville Center
Sat 08:07:46 AM 31.1236 -83.4144 161° South 438 504 39,000  Level Jacksonville Center
Sat 08:08:46 AM 31.0047 -83.3678 162° South 444 511 39,000  Level Jacksonville Center
Sat 08:09:46 AM 30.8900 -83.3236 160° South 444 511 39,000  Level Jacksonville Center
Sat 08:10:46 AM 30.7817 -83.2769 158° South 439 505 39,000  Level Jacksonville Center
Sat 08:11:46 AM 30.6669 -83.2233 156° South 439 505 39,000  Level Jacksonville Center
Sat 08:12:46 AM 30.5544 -83.1653 157° South 439 505 39,000  Level Jacksonville Center
Sat 08:13:46 AM 30.4397 -83.1094 157° South 439 505 39,000  Level Jacksonville Center
Sat 08:14:46 AM 30.3292 -83.0539 157° South 439 505 39,000  Level Jacksonville Center
Sat 08:15:46 AM 30.2164 -82.9983 156° South 439 505 39,000  Level Jacksonville Center
Sat 08:16:46 AM 30.1100 -82.9431 159° South 434 499 39,000  Level Jacksonville Center
Sat 08:17:46 AM 29.9825 -82.8853 156° South 450 518 39,000  Level Jacksonville Center
Sat 08:18:46 AM 29.8719 -82.8278 158° South 434 499 39,000  Level Jacksonville Center
Sat 08:19:46 AM 29.7611 -82.7753 156° South 439 505 39,000  Level Jacksonville Center
Sat 08:20:46 AM 29.6506 -82.7181 158° South 439 505 39,000  Level Jacksonville Center
Sat 08:21:46 AM 29.5378 -82.6658 155° Southeast 439 505 39,000  Level Jacksonville Center
Sat 08:22:46 AM 29.4311 -82.6089 157° South 433 498 39,000  Level Jacksonville Center
Sat 08:23:46 AM 29.3203 -82.5544 158° South 433 498 39,000  Level Jacksonville Center
Sat 08:24:46 AM 29.2094 -82.5025 159° South 433 498 39,000  Level Jacksonville Center
Sat 08:25:46 AM 29.0967 -82.4531 179° South 433 498 39,000  Level Jacksonville Center
Sat 08:26:46 AM 28.9839 -82.4511 183° South 418 481 39,000  Level Jacksonville Center
Sat 08:27:46 AM 28.8672 -82.4586 184° South 413 475 39,000  Level Jacksonville Center
Sat 08:28:46 AM 28.7564 -82.4664 183° South 408 470 39,000  Level Jacksonville Center
Sat 08:29:46 AM 28.6417 -82.4739 182° South 408 470 39,000  Level Jacksonville Center
Sat 08:30:46 AM 28.5250 -82.4792 183° South 413 475 39,000  Level Jacksonville Center
Sat 08:33:02 AM 28.2608 -82.4964 182° South 424 488 39,000  Level Miami Center
Sat 08:34:02 AM 28.1461 -82.5000 184° South 425 489 39,000  Level Miami Center
Sat 08:35:02 AM 28.0289 -82.5083 176° South 425 489 39,000  Level Miami Center
Sat 08:36:02 AM 27.9125 -82.5003 161° South 425 489 39,000  Level Miami Center
Sat 08:37:02 AM 27.7972 -82.4547 162° South 423 487 39,000 -650 Level Miami Center
Sat 08:38:02 AM 27.6944 -82.4167 162° South 436 502 37,700 -1,200 Descending Miami Center
Sat 08:39:02 AM 27.5650 -82.3683 162° South 441 507 36,600 -900 Descending Miami Center
Sat 08:40:02 AM 27.4497 -82.3253 163° South 441 507 35,900 -700 Descending Miami Center
Sat 08:41:02 AM 27.3364 -82.2872 161° South 431 496 35,200 -750 Descending Miami Center
Sat 08:42:02 AM 27.2375 -82.2500 161° South 423 487 34,400 -850 Descending Miami Center
Sat 08:43:02 AM 27.1286 -82.2075 163° South 423 487 33,500 -1,100 Descending Miami Center
Sat 08:44:02 AM 27.0028 -82.1644 162° South 418 481 32,200 -1,800 Descending Miami Center
Sat 08:45:02 AM 26.8997 -82.1272 162° South 423 487 29,900 -2,700 Descending Miami Center
Sat 08:46:02 AM 26.7844 -82.0847 133° Southeast 433 498 26,800 -2,700 Descending Miami Center
Sat 08:47:02 AM 26.7003 -81.9833 125° Southeast 422 486 24,500 -2,300 Descending Miami Center
Sat 08:48:02 AM 26.6311 -81.8736 124° Southeast 425 489 22,200 -2,250 Descending Miami Center
Sat 08:49:02 AM 26.5619 -81.7592 124° Southeast 432 497 20,000 -2,050 Descending Miami Center
Sat 08:50:02 AM 26.4986 -81.6544 124° Southeast 425 489 18,100 -2,450 Descending Miami Center
Sat 08:51:02 AM 26.4353 -81.5500 126° Southeast 412 474 15,100 -2,500 Descending Miami Center
Sat 08:52:02 AM 26.3697 -81.4475 125° Southeast 412 474 13,100 -1,650 Descending Miami Center
Sat 08:53:02 AM 26.3081 -81.3481 119° Southeast 407 468 11,800 -1,150 Descending Miami Center
Sat 08:54:02 AM 26.2569 -81.2442 122° Southeast 401 461 10,800 -900 Descending Miami Center
Sat 08:55:02 AM 26.2033 -81.1494 120° Southeast 380 437 10,000 -950 Descending Miami Center
Sat 08:56:02 AM 26.1597 -81.0647 126° Southeast 349 402 8,900 -1,143 Descending Miami Center
Sat 08:56:47 AM 26.1178 -81.0008 103° East 307 353 8,000 -1,159 Descending Miami Center
Sat 08:57:30 AM 26.1050 -80.9378 92° East 299 344 7,200 -1,120 Descending Miami Center
Sat 08:58:02 AM 26.1039 -80.8961 93° East 297 342 6,600 -848 Descending Miami Center
Sat 08:59:02 AM 26.1000 -80.8081 93° East 281 323 5,900 -350 Descending Miami Center
Sat 09:00:02 AM 26.0961 -80.7225 100° East 275 316 5,900 67 Level Miami Center
Sat 09:00:32 AM 26.0889 -80.6758 85° East 271 312 6,000 100 Climbing Miami Center
Sat 09:01:02 AM 26.0919 -80.6392 98° East 275 316 6,000  Level Miami Center
Sat 09:02:02 AM 26.0817 -80.5556 99° East 275 316 6,000 -66 Level Miami Center
Sat 09:02:33 AM 26.0744 -80.5067 90° East 269 310 5,900 -1,102 Descending Miami Center
Sat 09:03:40 AM 26.0747 -80.4164 90° East 264 304 4,200 -1,359 Descending Miami Center
Sat 09:04:41 AM 26.0744 -80.3403 91° East 235 270 3,000 -1,138 Descending Miami Center
Sat 09:05:36 AM 26.0736 -80.2822 89° East 202 232 2,000 -983 Descending Miami Center
Sat 09:06:37 AM 26.0747 -80.2339 92° East 151 174 1,100 -776 Descending Miami Center
Sat 09:07:32 AM 26.0736 -80.1967 92° East 129 148 500 -655 Descending Miami Center

Login

Don't have an account? Register now (free) for customized features, flight alerts, and more!